createdAt,value
2022-10-10T00:04:05.544Z,9.6
2022-10-10T00:09:12.773Z,9.4
2022-10-10T00:14:49.212Z,9.3
2022-10-10T00:20:09.940Z,9
2022-10-10T00:25:47.949Z,9.2
2022-10-10T00:31:29.273Z,9.1
2022-10-10T00:37:05.793Z,9
2022-10-10T00:42:42.653Z,9.1
2022-10-10T00:48:03.998Z,8.9
2022-10-10T00:53:40.663Z,8.6
2022-10-10T00:59:17.825Z,8.5
2022-10-10T01:05:01.243Z,8.7
2022-10-10T01:10:37.497Z,8.6
2022-10-10T01:15:59.638Z,8.5
2022-10-10T01:21:36.137Z,8.4
2022-10-10T01:27:12.683Z,8.3
2022-10-10T01:33:08.052Z,8.6
2022-10-10T01:38:29.846Z,8.4
2022-10-10T01:44:05.701Z,8.4
2022-10-10T01:49:27.861Z,8.6
2022-10-10T01:55:04.435Z,8.6
2022-10-10T02:00:40.467Z,8.5
2022-10-10T02:06:19.137Z,8.6
2022-10-10T02:11:55.616Z,8.8
2022-10-10T02:17:31.908Z,8.5
2022-10-10T02:23:09.927Z,8.6
2022-10-10T02:28:47.239Z,8.5
2022-10-10T02:34:09.048Z,8.5
2022-10-10T02:39:46.216Z,8.4
2022-10-10T02:45:23.548Z,8.3
2022-10-10T02:51:00.552Z,8.3
2022-10-10T02:56:38.029Z,8.3
2022-10-10T03:01:59.518Z,8.2
2022-10-10T03:07:39.124Z,8.1
2022-10-10T03:12:45.588Z,8.1
2022-10-10T03:18:07.692Z,7.9
2022-10-10T03:23:29.849Z,7.8
2022-10-10T03:29:07.437Z,7.8
2022-10-10T03:34:28.948Z,7.6
2022-10-10T03:39:50.446Z,7.5
2022-10-10T03:45:12.989Z,6.9
2022-10-10T03:50:33.844Z,6.9
2022-10-10T03:55:40.068Z,7
2022-10-10T04:01:17.668Z,6.9
2022-10-10T04:06:43.099Z,6.8
2022-10-10T04:12:05.361Z,6.8
2022-10-10T04:17:16.241Z,6.8
2022-10-10T04:27:33.496Z,7.1
2022-10-10T04:32:24.623Z,7.2
2022-10-10T04:37:30.403Z,7.3
2022-10-10T04:42:58.179Z,7.4
2022-10-10T04:48:20.173Z,7.6
2022-10-10T04:53:57.404Z,7.6
2022-10-10T04:59:34.305Z,7.8
2022-10-10T05:04:56.703Z,7.8
2022-10-10T05:10:18.499Z,8
2022-10-10T05:15:25.601Z,8
2022-10-10T05:20:31.986Z,8.2
2022-10-10T05:25:53.590Z,8.4
2022-10-10T05:31:16.224Z,8.7
2022-10-10T05:36:58.651Z,8.6
2022-10-10T05:42:36.213Z,8.6
2022-10-10T05:48:18.168Z,9
2022-10-10T05:53:56.487Z,9.1
2022-10-10T05:59:34.804Z,9.5
2022-10-10T06:05:13.695Z,9.8
2022-10-10T06:11:20.178Z,10.1
2022-10-10T06:17:01.710Z,10.3
2022-10-10T06:22:39.760Z,10.5
2022-10-10T06:28:44.341Z,11.4
2022-10-10T06:34:25.433Z,12.1
2022-10-10T06:40:03.624Z,12
2022-10-10T06:45:45.404Z,12.4
2022-10-10T06:51:07.812Z,12.6
2022-10-10T06:56:45.504Z,12.5
2022-10-10T07:02:24.175Z,12.7
2022-10-10T07:08:03.453Z,13.5
2022-10-10T07:13:50.607Z,13.1
2022-10-10T07:34:48.993Z,14.8
2022-10-10T07:40:12.218Z,15.1
2022-10-10T07:45:37.211Z,14.8
2022-10-10T07:51:02.809Z,15.6
2022-10-10T07:56:27.422Z,15.6
2022-10-10T08:02:07.872Z,16.1
2022-10-10T08:07:45.327Z,16.4
2022-10-10T08:13:30.055Z,16.3
2022-10-10T08:19:10.244Z,16.1
2022-10-10T08:24:51.898Z,16.7
2022-10-10T08:30:30.818Z,17.1
2022-10-10T08:36:10.363Z,16.4
2022-10-10T08:41:52.560Z,16.6
2022-10-10T08:47:39.238Z,17.1
2022-10-10T08:53:16.292Z,17.5
2022-10-10T08:58:57.248Z,17.1
2022-10-10T09:05:41.415Z,18.1
2022-10-10T09:11:19.054Z,18
2022-10-10T09:17:01.398Z,18.2
2022-10-10T09:22:44.275Z,19.8
2022-10-10T09:28:29.127Z,19
2022-10-10T09:34:07.048Z,19.2
2022-10-10T09:40:06.569Z,19.6
2022-10-10T09:45:45.199Z,19.1
2022-10-10T09:51:23.473Z,18.8
2022-10-10T09:57:02.375Z,19.4
2022-10-10T10:02:40.098Z,19.1
2022-10-10T10:08:32.774Z,19
2022-10-10T10:14:12.065Z,18.9
2022-10-10T10:19:49.432Z,19.1
2022-10-10T10:25:34.887Z,19.4
2022-10-10T10:30:58.731Z,19.6
2022-10-10T10:36:20.683Z,19.7
2022-10-10T10:42:02.691Z,19.8
2022-10-10T10:47:42.058Z,19.8
2022-10-10T10:53:24.147Z,20.3
2022-10-10T11:02:26.190Z,19.6
2022-10-10T11:11:17.575Z,19.9
2022-10-10T11:17:39.891Z,19.8
2022-10-10T11:23:24.898Z,19.6
2022-10-10T11:29:06.233Z,19.7
2022-10-10T11:34:47.759Z,19.8
2022-10-10T11:40:25.380Z,19.7
2022-10-10T11:46:09.462Z,19.7
2022-10-10T11:51:49.512Z,19.6
2022-10-10T16:10:19.925Z,17.3
2022-10-10T16:15:45.507Z,17.2
2022-10-10T16:21:30.964Z,17.1
2022-10-10T16:27:27.064Z,16.9
2022-10-10T16:38:22.965Z,16.8
2022-10-10T16:44:28.887Z,16.8
2022-10-10T16:50:09.510Z,16.7
2022-10-10T16:55:19.077Z,16.5
2022-10-10T17:01:03.672Z,16.4
2022-10-10T17:06:51.457Z,16.2
2022-10-10T17:12:30.520Z,16.1
2022-10-10T17:19:01.897Z,15.8
2022-10-10T17:24:25.979Z,15.6
2022-10-10T17:29:48.497Z,15.4
2022-10-10T17:35:36.008Z,15.4
2022-10-10T17:47:22.999Z,15.3
2022-10-10T17:52:45.277Z,15.3
2022-10-10T17:58:08.395Z,15.4
2022-10-10T18:03:30.370Z,15.3
2022-10-10T18:09:06.886Z,15.3
2022-10-10T18:14:45.620Z,15.3
2022-10-10T18:20:37.868Z,15.1
2022-10-10T18:26:15.930Z,15.1
2022-10-10T18:31:45.054Z,15.1
2022-10-10T18:37:22.909Z,15
2022-10-10T18:42:59.722Z,14.9
2022-10-10T18:48:22.646Z,14.8
2022-10-10T18:53:59.303Z,14.8
2022-10-10T18:59:37.468Z,14.8
2022-10-10T19:05:20.491Z,14.8
2022-10-10T19:10:57.260Z,14.8
2022-10-10T19:16:34.886Z,14.9
2022-10-10T19:22:14.829Z,14.8
2022-10-10T19:27:52.601Z,14.8
2022-10-10T19:33:35.847Z,14.8
2022-10-10T19:39:00.859Z,14.9
2022-10-10T19:44:38.363Z,14.8
2022-10-10T19:50:20.122Z,14.8
2022-10-10T19:55:58.190Z,14.6
2022-10-10T20:01:36.113Z,14.6
2022-10-10T20:07:14.491Z,14.4
2022-10-10T20:12:37.314Z,14.4
2022-10-10T20:17:58.768Z,14.3
